Time;durP1;ratioP1;P1;durP2;ratioP2;P2;SDS_P1;SDS_P2;PMS_P1;PMS_P2;Temp;Humidity;BMP_temperature;BMP_pressure;BME280_temperature;BME280_humidity;BME280_pressure;Samples;Min_cycle;Max_cycle;Signal;HPM_P1;HPM_P2
2021/07/18 00:02:09;;;;;;;;;;;;;;;28.37;49.41;99544.84;4468166;32;35768;-86
2021/07/18 00:04:38;;;;;;;;;;;;;;;27.58;51.58;99534.50;4453767;32;33428;-85
2021/07/18 00:07:08;;;;;;;;;;;;;;;28.29;49.83;99536.81;4413020;32;886766;-86
2021/07/18 00:09:35;;;;;;;;;;;;;;;27.64;51.49;99541.88;4466585;32;33310;-85
2021/07/18 00:12:04;;;;;;;;;;;;;;;28.18;50.05;99546.00;4453424;32;34776;-86
2021/07/18 00:14:32;;;;;;;;;;;;;;;26.95;53.55;99539.22;4466291;32;33248;-87
2021/07/18 00:17:00;;;;;;;;;;;;;;;28.32;49.63;99525.75;4466430;32;32429;-86
2021/07/18 00:19:27;;;;;;;;;;;;;;;28.68;48.69;99533.47;4454263;32;33389;-87
2021/07/18 00:21:57;;;;;;;;;;;;;;;29.01;47.60;99528.00;4441570;32;33418;-86
2021/07/18 00:24:25;;;;;;;;;;;;;;;28.76;48.51;99524.56;4466051;32;35203;-85
2021/07/18 00:26:56;;;;;;;;;;;;;;;29.23;47.25;99525.59;4453969;32;34777;-86
2021/07/18 00:29:25;;;;;;;;;;;;;;;29.23;47.14;99536.34;4454701;32;34264;-86
2021/07/18 00:31:52;;;;;;;;;;;;;;;29.43;46.69;99534.09;4454306;32;33225;-85
2021/07/18 00:34:21;;;;;;;;;;;;;;;28.92;47.99;99521.84;4453934;32;35121;-85
2021/07/18 00:36:48;;;;;;;;;;;;;;;29.36;46.85;99539.31;4453733;32;34049;-86
2021/07/18 00:39:16;;;;;;;;;;;;;;;28.62;48.92;99532.25;4441031;32;34939;-86
2021/07/18 00:41:44;;;;;;;;;;;;;;;28.17;50.22;99536.28;4440544;32;35073;-86
2021/07/18 00:44:13;;;;;;;;;;;;;;;29.36;46.88;99528.59;4439526;32;35973;-87
2021/07/18 00:46:41;;;;;;;;;;;;;;;29.15;47.43;99521.09;4466927;32;34085;-86
2021/07/18 00:49:09;;;;;;;;;;;;;;;29.00;47.78;99526.34;4440445;32;33178;-86
2021/07/18 00:51:37;;;;;;;;;;;;;;;28.97;47.87;99529.34;4453549;32;35573;-86
2021/07/18 00:54:12;;;;;;;;;;;;;;;28.60;49.02;99515.53;4441766;32;33466;-87
2021/07/18 00:56:39;;;;;;;;;;;;;;;28.74;48.52;99524.72;4466049;32;33493;-87
2021/07/18 00:59:09;;;;;;;;;;;;;;;29.15;47.30;99518.41;4453366;32;33699;-87
2021/07/18 01:01:37;;;;;;;;;;;;;;;29.54;46.29;99525.62;4439906;32;34314;-86
2021/07/18 01:04:05;;;;;;;;;;;;;;;28.91;47.78;99522.84;4453474;32;34878;-86
2021/07/18 01:06:35;;;;;;;;;;;;;;;28.55;48.82;99527.75;4453195;32;33906;-87
2021/07/18 01:09:03;;;;;;;;;;;;;;;29.35;46.71;99523.41;4453146;32;34264;-85
2021/07/18 01:11:33;;;;;;;;;;;;;;;29.65;45.90;99522.56;4453225;32;33555;-87
2021/07/18 01:14:00;;;;;;;;;;;;;;;29.74;45.66;99523.38;4452718;32;34021;-85
2021/07/18 01:16:28;;;;;;;;;;;;;;;29.91;45.17;99516.03;4453084;32;33232;-86
2021/07/18 01:18:56;;;;;;;;;;;;;;;29.60;45.90;99519.56;4453134;32;33164;-87
2021/07/18 01:21:24;;;;;;;;;;;;;;;29.53;45.99;99515.94;4440084;32;33364;-86
2021/07/18 01:23:53;;;;;;;;;;;;;;;29.36;46.44;99514.31;4453190;32;33626;-86
2021/07/18 01:26:21;;;;;;;;;;;;;;;29.38;46.53;99515.81;4452700;32;32718;-86
2021/07/18 01:28:48;;;;;;;;;;;;;;;29.66;45.86;99515.34;4452412;32;33723;-85
2021/07/18 01:31:16;;;;;;;;;;;;;;;29.47;46.08;99509.41;4439900;32;34717;-87
2021/07/18 01:33:44;;;;;;;;;;;;;;;29.46;46.20;99515.81;4452728;32;33996;-86
2021/07/18 01:36:13;;;;;;;;;;;;;;;29.11;47.05;99525.12;4453234;32;33158;-86
2021/07/18 01:38:40;;;;;;;;;;;;;;;26.01;55.95;99573.47;4465499;32;34027;-88
2021/07/18 01:41:08;;;;;;;;;;;;;;;26.29;55.24;99548.56;4452755;32;33500;-87
2021/07/18 01:43:37;;;;;;;;;;;;;;;27.40;51.84;99537.25;4452577;32;33613;-86
2021/07/18 01:46:04;;;;;;;;;;;;;;;27.67;50.92;99552.25;4452618;32;33671;-86
2021/07/18 01:48:32;;;;;;;;;;;;;;;27.49;51.63;99562.22;4452232;32;33387;-86
2021/07/18 01:51:00;;;;;;;;;;;;;;;26.46;54.67;99578.94;4452531;32;33693;-86
2021/07/18 01:53:29;;;;;;;;;;;;;;;26.25;55.75;99569.41;4440318;32;35732;-86
2021/07/18 01:55:57;;;;;;;;;;;;;;;26.40;55.23;99566.19;4441306;32;33349;-87
2021/07/18 01:58:28;;;;;;;;;;;;;;;27.09;53.27;99582.41;4467308;32;34995;-86
2021/07/18 02:00:56;;;;;;;;;;;;;;;26.71;54.21;99584.44;4454353;32;35523;-86
2021/07/18 02:03:24;;;;;;;;;;;;;;;26.89;53.95;99576.44;4454185;32;35556;-86
2021/07/18 02:05:51;;;;;;;;;;;;;;;27.45;52.21;99560.88;4441844;32;34485;-86
2021/07/18 02:08:19;;;;;;;;;;;;;;;27.96;50.65;99566.19;4454362;32;34650;-87
2021/07/18 02:10:47;;;;;;;;;;;;;;;27.50;51.61;99577.28;4467322;32;35374;-86
2021/07/18 02:13:16;;;;;;;;;;;;;;;28.22;49.73;99570.62;4467151;32;33150;-87
2021/07/18 02:15:45;;;;;;;;;;;;;;;27.64;51.18;99568.66;4442156;32;33370;-86
2021/07/18 02:18:12;;;;;;;;;;;;;;;28.00;49.96;99556.81;4467225;32;33074;-85
2021/07/18 02:20:40;;;;;;;;;;;;;;;27.87;50.54;99580.56;4467894;32;34922;-87
2021/07/18 02:23:08;;;;;;;;;;;;;;;27.61;51.25;99566.28;4467471;32;34855;-86
2021/07/18 02:25:36;;;;;;;;;;;;;;;28.73;48.27;99557.91;4467414;32;33751;-85
2021/07/18 02:28:03;;;;;;;;;;;;;;;29.21;46.86;99547.25;4441455;32;34723;-86
2021/07/18 02:30:31;;;;;;;;;;;;;;;29.08;47.15;99563.88;4441527;32;34810;-86
2021/07/18 02:32:58;;;;;;;;;;;;;;;28.36;49.11;99579.84;4454325;32;35117;-87
2021/07/18 02:35:26;;;;;;;;;;;;;;;27.50;51.67;99575.44;4453977;32;35551;-87
2021/07/18 02:37:58;;;;;;;;;;;;;;;28.42;49.13;99555.06;4455292;32;34281;-87
2021/07/18 02:40:28;;;;;;;;;;;;;;;29.03;47.32;99528.69;4441993;32;36149;-86
2021/07/18 02:42:58;;;;;;;;;;;;;;;28.71;48.27;99532.28;4442187;32;35768;-85
2021/07/18 02:45:25;;;;;;;;;;;;;;;28.66;48.21;99549.69;4454546;32;33586;-86
2021/07/18 02:47:56;;;;;;;;;;;;;;;27.74;50.92;99555.12;4454318;32;36208;-86
2021/07/18 02:50:28;;;;;;;;;;;;;;;28.65;48.59;99541.81;4467140;32;34930;-86
2021/07/18 02:52:55;;;;;;;;;;;;;;;29.26;46.81;99527.97;4453891;32;33579;-87
2021/07/18 02:55:27;;;;;;;;;;;;;;;28.50;48.64;99541.66;4455107;32;33645;-86
2021/07/18 02:57:54;;;;;;;;;;;;;;;27.82;50.48;99548.94;4454441;32;33426;-87
2021/07/18 03:00:23;;;;;;;;;;;;;;;27.98;50.29;99538.25;4454512;32;34239;-87
2021/07/18 03:02:51;;;;;;;;;;;;;;;28.88;47.88;99525.88;4467176;32;34255;-88
2021/07/18 03:05:19;;;;;;;;;;;;;;;27.75;50.62;99542.56;4454421;32;34669;-86
2021/07/18 03:07:46;;;;;;;;;;;;;;;27.29;51.97;99566.97;4453564;32;34649;-85
2021/07/18 03:10:15;;;;;;;;;;;;;;;27.65;51.15;99572.16;4441651;32;35575;-87
2021/07/18 03:12:43;;;;;;;;;;;;;;;27.65;50.92;99577.50;4453866;32;36519;-87
2021/07/18 03:15:12;;;;;;;;;;;;;;;26.56;54.38;99577.00;4441383;32;33911;-87
2021/07/18 03:17:40;;;;;;;;;;;;;;;27.78;50.78;99569.00;4466504;32;34785;-86
2021/07/18 03:20:08;;;;;;;;;;;;;;;28.46;49.05;99573.28;4467484;32;34379;-87
2021/07/18 03:22:36;;;;;;;;;;;;;;;28.86;48.08;99565.41;4454072;32;33239;-85
2021/07/18 03:25:05;;;;;;;;;;;;;;;28.82;48.15;99569.44;4441648;32;34208;-88
2021/07/18 03:27:32;;;;;;;;;;;;;;;29.10;47.34;99580.59;4467301;32;34273;-87
2021/07/18 03:30:00;;;;;;;;;;;;;;;28.83;48.06;99581.84;4466714;32;34609;-87
2021/07/18 03:32:30;;;;;;;;;;;;;;;29.09;47.46;99586.16;4454508;32;33484;-88
2021/07/18 03:34:57;;;;;;;;;;;;;;;29.36;46.85;99586.75;4453587;32;32206;-86
2021/07/18 03:37:25;;;;;;;;;;;;;;;29.41;46.75;99579.03;4453927;32;34718;-88
2021/07/18 03:39:52;;;;;;;;;;;;;;;28.75;48.47;99581.87;4454140;32;34460;-87
2021/07/18 03:42:20;;;;;;;;;;;;;;;28.97;48.02;99586.53;4454019;32;34463;-86
2021/07/18 03:44:47;;;;;;;;;;;;;;;28.85;48.43;99584.38;4466204;32;36902;-87
2021/07/18 03:47:15;;;;;;;;;;;;;;;28.64;49.00;99594.59;4440935;32;34548;-86
2021/07/18 03:49:45;;;;;;;;;;;;;;;29.12;47.76;99596.56;4453888;32;33450;-86
2021/07/18 03:52:12;;;;;;;;;;;;;;;29.20;47.71;99593.84;4453387;32;36849;-86
2021/07/18 03:54:40;;;;;;;;;;;;;;;29.69;46.53;99592.00;4441530;32;34130;-87
2021/07/18 03:57:08;;;;;;;;;;;;;;;29.47;47.00;99591.78;4454047;32;33209;-86
2021/07/18 03:59:35;;;;;;;;;;;;;;;29.52;46.98;99592.09;4453687;32;33990;-87
2021/07/18 04:02:03;;;;;;;;;;;;;;;29.63;46.58;99594.38;4453810;32;36383;-87
2021/07/18 04:04:34;;;;;;;;;;;;;;;29.56;47.01;99595.25;4454535;32;32973;-85
2021/07/18 04:07:01;;;;;;;;;;;;;;;29.37;47.46;99597.34;4454162;32;35397;-87
2021/07/18 04:09:29;;;;;;;;;;;;;;;29.38;47.54;99600.84;4453916;32;35294;-86
2021/07/18 04:11:56;;;;;;;;;;;;;;;28.79;49.10;99615.38;4466614;32;34647;-86
2021/07/18 04:14:25;;;;;;;;;;;;;;;29.45;47.17;99623.28;4453674;32;34994;-87
2021/07/18 04:16:54;;;;;;;;;;;;;;;29.02;48.45;99622.72;4441045;32;34392;-86
2021/07/18 04:19:22;;;;;;;;;;;;;;;28.02;51.18;99612.94;4440247;32;35438;-87
2021/07/18 04:21:52;;;;;;;;;;;;;;;28.58;49.65;99615.84;4453772;32;34291;-86
2021/07/18 04:24:20;;;;;;;;;;;;;;;28.49;50.08;99628.41;4466618;32;33112;-86
2021/07/18 04:26:47;;;;;;;;;;;;;;;28.90;48.90;99628.41;4440343;32;33597;-87
2021/07/18 04:29:15;;;;;;;;;;;;;;;28.72;49.63;99617.88;4440774;32;35730;-85
2021/07/18 04:31:45;;;;;;;;;;;;;;;28.17;51.03;99622.00;4441175;32;36111;-86
2021/07/18 04:34:14;;;;;;;;;;;;;;;28.62;49.90;99623.38;4440740;32;35434;-86
2021/07/18 04:36:42;;;;;;;;;;;;;;;28.95;48.75;99618.03;4467957;32;34176;-86
2021/07/18 04:39:09;;;;;;;;;;;;;;;28.51;50.20;99615.69;4466433;32;35577;-86
2021/07/18 04:41:37;;;;;;;;;;;;;;;28.64;49.92;99621.41;4440850;32;34374;-85
2021/07/18 04:44:05;;;;;;;;;;;;;;;29.41;47.91;99624.66;4454132;32;33497;-86
2021/07/18 04:46:45;;;;;;;;;;;;;;;28.89;49.36;99618.72;4454882;32;34675;-86
2021/07/18 04:49:13;;;;;;;;;;;;;;;28.95;49.06;99618.03;4440346;32;33877;-88
2021/07/18 04:51:40;;;;;;;;;;;;;;;29.15;48.60;99629.22;4453670;32;34365;-85
2021/07/18 04:54:11;;;;;;;;;;;;;;;29.86;46.89;99627.66;4440844;32;35023;-86
2021/07/18 04:56:39;;;;;;;;;;;;;;;30.07;46.44;99641.31;4440518;32;35106;-87
2021/07/18 04:59:06;;;;;;;;;;;;;;;30.49;45.26;99636.56;4440393;32;32782;-87
2021/07/18 05:01:37;;;;;;;;;;;;;;;30.56;45.02;99634.00;4441172;32;35148;-88
2021/07/18 05:04:07;;;;;;;;;;;;;;;30.58;45.04;99642.69;4453084;32;36212;-86
2021/07/18 05:06:36;;;;;;;;;;;;;;;30.41;45.50;99650.03;4453486;32;35065;-86
2021/07/18 05:09:03;;;;;;;;;;;;;;;30.21;45.96;99649.63;4453758;32;34984;-87
2021/07/18 05:11:31;;;;;;;;;;;;;;;29.78;46.97;99650.00;4454163;32;35044;-87
2021/07/18 05:13:59;;;;;;;;;;;;;;;29.81;46.86;99649.69;4440326;32;35799;-86
2021/07/18 05:16:30;;;;;;;;;;;;;;;30.58;45.17;99650.75;4453772;32;34541;-85
2021/07/18 05:18:59;;;;;;;;;;;;;;;29.79;47.06;99646.31;4453398;32;33702;-87
2021/07/18 05:21:26;;;;;;;;;;;;;;;29.07;49.35;99644.50;4452898;32;33621;-86
2021/07/18 05:23:56;;;;;;;;;;;;;;;30.20;46.17;99653.38;4466330;32;33305;-87
2021/07/18 05:26:24;;;;;;;;;;;;;;;30.67;45.15;99643.47;4439951;32;32806;-88
2021/07/18 05:28:54;;;;;;;;;;;;;;;30.89;44.46;99644.47;4452650;32;35421;-87
2021/07/18 05:31:24;;;;;;;;;;;;;;;30.92;44.27;99649.47;4442199;32;33493;-87
2021/07/18 05:33:52;;;;;;;;;;;;;;;30.43;45.56;99645.31;4455071;32;35422;-87
2021/07/18 05:36:22;;;;;;;;;;;;;;;30.69;45.22;99644.13;4455247;32;35036;-87
2021/07/18 05:38:50;;;;;;;;;;;;;;;31.31;43.72;99638.53;4441875;32;34947;-88
2021/07/18 05:41:18;;;;;;;;;;;;;;;31.09;44.22;99632.19;4455198;32;34485;-87
2021/07/18 05:43:47;;;;;;;;;;;;;;;31.57;43.16;99639.06;4442239;32;33235;-86
2021/07/18 05:46:18;;;;;;;;;;;;;;;31.80;42.55;99633.56;4442686;32;36501;-87
2021/07/18 05:48:46;;;;;;;;;;;;;;;31.28;43.82;99638.03;4442240;32;34110;-87
2021/07/18 05:51:14;;;;;;;;;;;;;;;31.28;43.75;99644.25;4454887;32;34312;-86
2021/07/18 05:53:41;;;;;;;;;;;;;;;31.74;42.90;99637.03;4441704;32;32299;-85
2021/07/18 05:56:09;;;;;;;;;;;;;;;31.19;44.35;99634.59;4454858;32;33233;-86
2021/07/18 05:58:36;;;;;;;;;;;;;;;31.77;42.96;99634.78;4441985;32;33262;-86
2021/07/18 06:01:04;;;;;;;;;;;;;;;31.98;42.67;99634.00;4441349;32;34488;-87
2021/07/18 06:03:34;;;;;;;;;;;;;;;31.94;42.67;99630.03;4442843;32;32045;-87
2021/07/18 06:06:02;;;;;;;;;;;;;;;31.44;44.01;99634.34;4467088;32;34580;-87
2021/07/18 06:08:30;;;;;;;;;;;;;;;31.88;43.17;99643.41;4442134;32;35320;-88
2021/07/18 06:10:57;;;;;;;;;;;;;;;30.93;45.42;99651.16;4441451;32;36785;-86
2021/07/18 06:13:27;;;;;;;;;;;;;;;31.00;45.09;99664.72;4441957;32;34165;-88
2021/07/18 06:15:54;;;;;;;;;;;;;;;31.28;44.50;99657.69;4454765;32;35556;-87
2021/07/18 06:18:25;;;;;;;;;;;;;;;30.76;45.88;99661.22;4454801;32;35547;-88
2021/07/18 06:20:52;;;;;;;;;;;;;;;30.51;46.50;99661.41;4454363;32;35849;-87
2021/07/18 06:23:22;;;;;;;;;;;;;;;31.07;44.58;99662.97;4467083;32;34371;-87
2021/07/18 06:26:05;;;;;;;;;;;;;;;31.81;42.29;99663.00;4455983;32;35221;-87
2021/07/18 06:28:34;;;;;;;;;;;;;;;32.12;41.67;99653.88;4455492;32;34103;-88
2021/07/18 06:31:02;;;;;;;;;;;;;;;32.28;41.05;99650.13;4454459;32;36954;-87
2021/07/18 06:33:32;;;;;;;;;;;;;;;32.50;40.62;99652.81;4441764;32;34981;-86
2021/07/18 06:35:59;;;;;;;;;;;;;;;32.68;40.04;99662.31;4466710;32;35128;-86
2021/07/18 06:38:27;;;;;;;;;;;;;;;32.82;39.50;99647.94;4467760;32;34833;-87
2021/07/18 06:40:55;;;;;;;;;;;;;;;32.80;39.04;99647.28;4453785;32;34920;-87
2021/07/18 06:43:23;;;;;;;;;;;;;;;33.25;38.14;99655.97;4453373;32;33878;-88
2021/07/18 06:45:52;;;;;;;;;;;;;;;33.43;37.99;99657.31;4454230;32;36525;-87
2021/07/18 06:48:20;;;;;;;;;;;;;;;33.49;37.95;99653.78;4466660;32;35259;-88
2021/07/18 06:50:48;;;;;;;;;;;;;;;33.30;38.31;99663.47;4454144;32;32866;-87
2021/07/18 06:53:15;;;;;;;;;;;;;;;33.25;38.44;99669.47;4454141;32;33220;-85
2021/07/18 06:55:43;;;;;;;;;;;;;;;33.29;38.29;99668.03;4454237;32;34834;-87
2021/07/18 06:58:10;;;;;;;;;;;;;;;32.84;39.45;99672.00;4467385;32;35553;-86
2021/07/18 07:00:40;;;;;;;;;;;;;;;32.71;39.78;99676.28;4441767;32;35017;-86
2021/07/18 07:03:07;;;;;;;;;;;;;;;32.45;40.94;99671.44;4454544;32;33609;-88
2021/07/18 07:05:35;;;;;;;;;;;;;;;33.11;39.68;99667.69;4454443;32;34160;-87
2021/07/18 07:08:03;;;;;;;;;;;;;;;33.37;38.68;99672.41;4467113;32;35593;-88
2021/07/18 07:10:30;;;;;;;;;;;;;;;33.05;39.69;99674.66;4440973;32;35275;-87
2021/07/18 07:12:58;;;;;;;;;;;;;;;33.18;39.31;99678.50;4454548;32;34521;-87
2021/07/18 07:15:26;;;;;;;;;;;;;;;32.28;41.05;99673.53;4466857;32;34504;-87
2021/07/18 07:17:53;;;;;;;;;;;;;;;30.76;44.57;99675.47;4454116;32;35546;-87
2021/07/18 07:20:20;;;;;;;;;;;;;;;32.52;40.66;99676.88;4467165;32;34918;-88
2021/07/18 07:22:48;;;;;;;;;;;;;;;32.76;39.87;99687.31;4453896;32;35112;-87
2021/07/18 07:25:16;;;;;;;;;;;;;;;32.75;39.97;99688.34;4441198;32;36083;-86
2021/07/18 07:27:44;;;;;;;;;;;;;;;31.27;43.39;99698.25;4440896;32;36656;-88
2021/07/18 07:30:13;;;;;;;;;;;;;;;32.70;40.19;99690.75;4454308;32;35545;-89
2021/07/18 07:32:41;;;;;;;;;;;;;;;32.83;39.79;99702.72;4467117;32;34194;-88
2021/07/18 07:35:09;;;;;;;;;;;;;;;33.16;39.18;99700.31;4453778;32;34950;-85
2021/07/18 07:37:36;;;;;;;;;;;;;;;32.99;39.34;99712.37;4468539;32;34110;-87
2021/07/18 07:40:04;;;;;;;;;;;;;;;32.20;41.03;99720.28;4454157;32;34953;-86
2021/07/18 07:42:32;;;;;;;;;;;;;;;33.44;38.66;99715.66;4467134;32;33025;-87
2021/07/18 07:44:59;;;;;;;;;;;;;;;34.01;37.26;99712.88;4454268;32;33899;-88
2021/07/18 07:47:27;;;;;;;;;;;;;;;34.19;36.44;99710.47;4453919;32;33993;-85
2021/07/18 07:49:54;;;;;;;;;;;;;;;33.70;37.82;99720.41;4440376;32;35309;-87
2021/07/18 07:52:22;;;;;;;;;;;;;;;33.62;37.42;99720.56;4453966;32;33591;-86
2021/07/18 07:54:49;;;;;;;;;;;;;;;33.11;36.88;99732.44;4440911;32;35604;-87
2021/07/18 07:57:17;;;;;;;;;;;;;;;33.61;35.87;99735.09;4454124;32;35485;-87
2021/07/18 07:59:44;;;;;;;;;;;;;;;33.58;35.63;99749.00;4466591;32;35225;-88
2021/07/18 08:02:12;;;;;;;;;;;;;;;33.94;34.79;99751.50;4453875;32;36094;-87
2021/07/18 08:04:40;;;;;;;;;;;;;;;33.43;35.73;99763.44;4441489;32;34521;-88
2021/07/18 08:07:07;;;;;;;;;;;;;;;31.79;38.96;99782.72;4453908;32;34203;-88
2021/07/18 08:09:35;;;;;;;;;;;;;;;30.44;41.60;99781.38;4453723;32;34941;-85
2021/07/18 08:12:02;;;;;;;;;;;;;;;30.29;43.03;99794.72;4466478;32;32479;-86
2021/07/18 08:14:31;;;;;;;;;;;;;;;30.29;43.54;99792.84;4453908;32;33915;-85
2021/07/18 08:16:58;;;;;;;;;;;;;;;30.34;45.04;99794.16;4466598;32;34816;-85
2021/07/18 08:19:26;;;;;;;;;;;;;;;30.02;46.09;99780.69;4454068;32;35968;-86
2021/07/18 08:21:53;;;;;;;;;;;;;;;29.74;47.42;99767.66;4441210;32;32393;-86
2021/07/18 08:24:21;;;;;;;;;;;;;;;30.16;46.65;99760.34;4453584;32;33822;-86
2021/07/18 08:26:48;;;;;;;;;;;;;;;30.38;46.36;99764.09;4453916;32;34896;-87
2021/07/18 08:29:16;;;;;;;;;;;;;;;31.38;43.76;99759.72;4453975;32;33970;-88
2021/07/18 08:31:43;;;;;;;;;;;;;;;31.08;44.18;99748.87;4453660;32;33702;-86
2021/07/18 08:34:11;;;;;;;;;;;;;;;31.73;42.60;99745.78;4440775;32;33719;-87
2021/07/18 08:36:41;;;;;;;;;;;;;;;31.56;43.02;99734.31;4440937;32;34774;-87
2021/07/18 08:39:08;;;;;;;;;;;;;;;31.51;42.59;99740.22;4453524;32;33970;-86
2021/07/18 08:41:38;;;;;;;;;;;;;;;31.92;41.46;99738.97;4440361;32;35386;-85
2021/07/18 08:44:06;;;;;;;;;;;;;;;32.08;41.22;99727.16;4453250;32;34977;-86
2021/07/18 08:46:34;;;;;;;;;;;;;;;32.18;41.15;99725.03;4465859;32;34749;-85
2021/07/18 08:49:01;;;;;;;;;;;;;;;32.41;40.62;99726.75;4453293;32;35545;-87
2021/07/18 08:51:30;;;;;;;;;;;;;;;32.97;38.97;99716.16;4465588;32;34330;-87
2021/07/18 08:53:57;;;;;;;;;;;;;;;32.84;39.06;99715.19;4466246;32;34499;-88
2021/07/18 08:56:25;;;;;;;;;;;;;;;32.74;39.34;99716.34;4440586;32;32964;-86
2021/07/18 08:58:52;;;;;;;;;;;;;;;33.36;37.85;99715.81;4453224;32;34992;-86
2021/07/18 09:01:21;;;;;;;;;;;;;;;33.52;37.16;99720.06;4453121;32;34603;-87
2021/07/18 09:03:48;;;;;;;;;;;;;;;33.66;36.99;99723.72;4440761;32;35078;-86
2021/07/18 09:06:16;;;;;;;;;;;;;;;33.92;36.35;99723.88;4466500;32;35498;-88
2021/07/18 09:08:46;;;;;;;;;;;;;;;32.53;39.00;99727.09;4454586;32;35860;-87
2021/07/18 09:11:15;;;;;;;;;;;;;;;33.58;36.65;99722.81;4455350;32;33852;-86
2021/07/18 09:13:49;;;;;;;;;;;;;;;33.53;36.67;99725.28;4468295;32;33546;-88
2021/07/18 09:16:17;;;;;;;;;;;;;;;34.01;35.63;99719.13;4467548;32;35272;-87
2021/07/18 09:18:44;;;;;;;;;;;;;;;33.95;35.68;99718.06;4467673;32;33056;-86
2021/07/18 09:21:12;;;;;;;;;;;;;;;33.76;36.05;99713.38;4455054;32;35758;-86
2021/07/18 09:23:39;;;;;;;;;;;;;;;33.18;37.00;99714.44;4467979;32;34696;-87
2021/07/18 09:26:20;;;;;;;;;;;;;;;33.65;36.31;99711.22;4441773;32;36458;-86
2021/07/18 09:28:48;;;;;;;;;;;;;;;30.77;42.26;99716.66;4467611;32;35339;-87
2021/07/18 09:31:34;;;;;;;;;;;;;;;31.93;40.25;99719.94;4445548;32;34701;-86
2021/07/18 09:34:09;;;;;;;;;;;;;;;32.51;39.14;99710.25;4454542;32;34848;-88
2021/07/18 09:36:36;;;;;;;;;;;;;;;33.37;37.73;99718.31;4467092;32;35733;-88
2021/07/18 09:39:09;;;;;;;;;;;;;;;34.05;35.98;99712.28;4455024;32;34579;-89
2021/07/18 09:41:37;;;;;;;;;;;;;;;33.63;36.61;99714.97;4467160;32;35734;-88
2021/07/18 09:44:05;;;;;;;;;;;;;;;34.10;35.48;99717.06;4470054;32;35610;-86
2021/07/18 09:46:33;;;;;;;;;;;;;;;33.52;36.24;99725.47;4470270;32;34073;-87
2021/07/18 09:49:03;;;;;;;;;;;;;;;34.05;34.88;99733.91;4456624;32;33518;-86
2021/07/18 09:51:31;;;;;;;;;;;;;;;34.26;34.74;99734.81;4456949;32;35489;-87
2021/07/18 09:54:11;;;;;;;;;;;;;;;34.18;35.13;99735.81;4469064;32;34645;-87
2021/07/18 09:56:39;;;;;;;;;;;;;;;34.78;34.17;99744.13;4455202;32;36866;-87
2021/07/18 09:59:07;;;;;;;;;;;;;;;34.48;34.51;99756.31;4467684;32;34729;-87
2021/07/18 10:01:34;;;;;;;;;;;;;;;34.38;34.77;99760.25;4454969;32;34137;-87
2021/07/18 10:04:03;;;;;;;;;;;;;;;34.71;34.22;99762.22;4441533;32;35975;-86
2021/07/18 10:06:36;;;;;;;;;;;;;;;33.86;35.10;99758.97;4455203;32;35114;-87
2021/07/18 10:09:09;;;;;;;;;;;;;;;33.93;34.97;99767.94;4454455;32;34513;-87
2021/07/18 10:11:37;;;;;;;;;;;;;;;33.76;35.65;99764.72;4467823;32;32854;-88
2021/07/18 10:14:05;;;;;;;;;;;;;;;34.48;34.65;99751.75;4441869;32;35232;-86
2021/07/18 10:16:33;;;;;;;;;;;;;;;34.29;35.71;99751.47;4454007;32;36445;-86
2021/07/18 10:19:00;;;;;;;;;;;;;;;33.89;36.89;99747.75;4454580;32;33166;-87
2021/07/18 10:21:29;;;;;;;;;;;;;;;34.28;36.14;99744.38;4467613;32;32858;-87
2021/07/18 10:23:57;;;;;;;;;;;;;;;33.46;38.27;99737.91;4441585;32;35366;-86
2021/07/18 10:26:29;;;;;;;;;;;;;;;34.03;36.66;99735.16;4454130;32;35351;-87
2021/07/18 10:28:57;;;;;;;;;;;;;;;34.22;36.54;99723.56;4468552;32;34247;-88
2021/07/18 10:31:31;;;;;;;;;;;;;;;33.88;37.88;99719.06;4441287;32;33481;-86
2021/07/18 10:33:59;;;;;;;;;;;;;;;34.25;37.80;99711.50;4454290;32;33273;-87
2021/07/18 10:36:26;;;;;;;;;;;;;;;33.96;39.08;99708.91;4467391;32;35040;-87
2021/07/18 10:38:55;;;;;;;;;;;;;;;33.87;39.62;99704.72;4467351;32;35547;-86
2021/07/18 10:41:39;;;;;;;;;;;;;;;33.83;40.30;99702.63;4441930;32;33778;-86
2021/07/18 10:44:16;;;;;;;;;;;;;;;33.79;40.08;99704.91;4454013;32;35531;-87
2021/07/18 10:46:43;;;;;;;;;;;;;;;33.83;39.86;99697.22;4441723;32;37284;-86
2021/07/18 10:49:14;;;;;;;;;;;;;;;33.34;41.37;99691.72;4468373;32;34683;-88
2021/07/18 10:51:42;;;;;;;;;;;;;;;33.63;41.56;99684.44;4454610;32;34403;-87
2021/07/18 10:54:13;;;;;;;;;;;;;;;33.59;41.40;99665.06;4453894;32;34599;-87
2021/07/18 10:56:43;;;;;;;;;;;;;;;32.33;43.70;99670.28;4453939;32;35593;-87
2021/07/18 10:59:30;;;;;;;;;;;;;;;32.47;43.55;99658.59;4454435;32;36049;-87
2021/07/18 11:02:04;;;;;;;;;;;;;;;31.48;46.13;99662.53;4468581;32;33435;-87
2021/07/18 11:04:41;;;;;;;;;;;;;;;32.01;45.08;99661.59;4440961;32;34307;-87
2021/07/18 11:07:20;;;;;;;;;;;;;;;32.88;43.49;99657.97;4454305;32;34960;-87
2021/07/18 11:09:48;;;;;;;;;;;;;;;33.32;42.54;99656.00;4467361;32;34946;-86
2021/07/18 11:12:22;;;;;;;;;;;;;;;33.51;42.44;99646.34;4454196;32;35280;-86
2021/07/18 11:14:52;;;;;;;;;;;;;;;33.53;43.37;99649.66;4467057;32;34738;-86
2021/07/18 11:17:29;;;;;;;;;;;;;;;33.59;43.57;99648.88;4466396;32;33283;-89
2021/07/18 11:19:58;;;;;;;;;;;;;;;33.12;44.61;99650.44;4466586;32;36325;-86
2021/07/18 11:22:43;;;;;;;;;;;;;;;32.86;44.08;99643.81;4468721;32;33925;-87
2021/07/18 11:25:11;;;;;;;;;;;;;;;33.00;43.35;99646.62;4454231;32;35120;-88
2021/07/18 11:27:45;;;;;;;;;;;;;;;33.41;42.34;99640.47;4466422;32;34080;-86
2021/07/18 11:30:39;;;;;;;;;;;;;;;33.92;41.63;99636.59;4466929;32;34456;-88
2021/07/18 11:33:25;;;;;;;;;;;;;;;33.56;42.38;99630.38;4464293;32;33175;-86
2021/07/18 11:35:56;;;;;;;;;;;;;;;33.78;41.78;99624.84;4466999;32;35102;-87
2021/07/18 11:38:24;;;;;;;;;;;;;;;34.37;41.24;99622.56;4453881;32;33839;-86
2021/07/18 11:40:52;;;;;;;;;;;;;;;34.59;39.97;99596.16;4454026;32;36849;-85
2021/07/18 11:43:22;;;;;;;;;;;;;;;34.62;39.77;99591.16;4441631;32;36648;-86
2021/07/18 11:45:53;;;;;;;;;;;;;;;34.49;40.40;99593.03;4441518;32;33146;-86
2021/07/18 11:48:24;;;;;;;;;;;;;;;34.80;39.51;99586.97;4466500;32;35669;-88
2021/07/18 11:50:51;;;;;;;;;;;;;;;34.73;39.57;99588.84;4453653;32;33930;-87
2021/07/18 11:53:18;;;;;;;;;;;;;;;35.26;38.56;99583.38;4468399;32;34214;-87
2021/07/18 11:55:46;;;;;;;;;;;;;;;35.61;38.31;99585.75;4441234;32;34934;-87
2021/07/18 11:58:13;;;;;;;;;;;;;;;34.81;40.93;99593.22;4468118;32;34621;-88
2021/07/18 12:00:54;;;;;;;;;;;;;;;35.22;39.25;99582.16;4453433;32;36829;-86
2021/07/18 12:03:22;;;;;;;;;;;;;;;35.84;37.86;99587.13;4466783;32;33482;-88
2021/07/18 12:05:50;;;;;;;;;;;;;;;35.88;37.73;99585.66;4441170;32;33511;-88
2021/07/18 12:08:17;;;;;;;;;;;;;;;36.71;35.71;99575.69;4440698;32;37793;-86
2021/07/18 12:10:51;;;;;;;;;;;;;;;36.31;35.34;99586.00;4441014;32;35672;-87
2021/07/18 12:13:31;;;;;;;;;;;;;;;36.14;35.70;99581.13;4453792;32;35063;-88
2021/07/18 12:15:59;;;;;;;;;;;;;;;36.57;35.07;99576.84;4440636;32;35776;-88
2021/07/18 12:18:27;;;;;;;;;;;;;;;36.85;34.01;99570.97;4453549;32;35256;-87
2021/07/18 12:21:08;;;;;;;;;;;;;;;36.28;34.84;99569.09;4466068;32;34753;-87
2021/07/18 12:23:36;;;;;;;;;;;;;;;36.85;33.58;99560.09;4453579;32;33160;-87
2021/07/18 12:26:03;;;;;;;;;;;;;;;37.26;32.32;99552.34;4453734;32;33948;-88
2021/07/18 12:28:31;;;;;;;;;;;;;;;36.82;33.31;99541.56;4466483;32;34144;-87
2021/07/18 12:31:03;;;;;;;;;;;;;;;36.69;33.20;99538.97;4440791;32;34600;-89
2021/07/18 12:33:31;;;;;;;;;;;;;;;36.52;33.42;99546.84;4453050;32;34553;-87
2021/07/18 12:36:02;;;;;;;;;;;;;;;37.17;32.05;99543.66;4441112;32;35143;-85
2021/07/18 12:38:30;;;;;;;;;;;;;;;36.93;32.72;99546.22;4466358;32;35139;-87
2021/07/18 12:41:01;;;;;;;;;;;;;;;37.07;32.21;99549.66;4439150;32;32952;-87
2021/07/18 12:43:29;;;;;;;;;;;;;;;36.82;32.94;99544.28;4453860;32;34204;-85
2021/07/18 12:45:56;;;;;;;;;;;;;;;36.99;32.49;99535.53;4465881;32;33809;-88
2021/07/18 12:48:24;;;;;;;;;;;;;;;36.90;32.30;99527.69;4453499;32;36128;-87
2021/07/18 12:50:52;;;;;;;;;;;;;;;36.17;33.74;99534.56;4466323;32;34966;-87
2021/07/18 12:53:20;;;;;;;;;;;;;;;36.53;33.20;99529.50;4440709;32;34127;-88
2021/07/18 12:55:48;;;;;;;;;;;;;;;36.13;34.15;99529.81;4453359;32;34275;-87
2021/07/18 12:58:18;;;;;;;;;;;;;;;36.58;33.09;99522.34;4453315;32;34797;-87